Time;durP1;ratioP1;P1;durP2;ratioP2;P2;SDS_P1;SDS_P2;PMS_P1;PMS_P2;Temp;Humidity;BMP_temperature;BMP_pressure;BME280_temperature;BME280_humidity;BME280_pressure;Samples;Min_cycle;Max_cycle;Signal;HPM_P1;HPM_P2
2023/03/15 00:01:18;;;;;;;54.45;51.00;;;1.60;99.90;;;;;;5187381;28;20034;-70
2023/03/15 00:03:49;;;;;;;48.53;45.53;;;0.80;99.90;;;;;;5187521;28;20508;-71
2023/03/15 00:06:20;;;;;;;48.60;45.63;;;1.00;99.90;;;;;;5187329;28;20362;-70
2023/03/15 00:08:51;;;;;;;48.08;45.17;;;1.20;99.90;;;;;;5187433;28;20053;-69
2023/03/15 00:11:22;;;;;;;44.92;42.13;;;0.20;99.90;;;;;;5187365;28;20540;-71
2023/03/15 00:13:53;;;;;;;44.90;42.05;;;0.10;99.90;;;;;;5186959;28;20050;-73
2023/03/15 00:16:25;;;;;;;50.63;47.55;;;0.30;99.90;;;;;;5187341;28;20018;-72
2023/03/15 00:18:56;;;;;;;74.07;66.53;;;1.00;99.90;;;;;;5187458;28;20062;-69
2023/03/15 00:21:30;;;;;;;56.25;51.67;;;0.40;99.90;;;;;;5187130;28;20442;-70
2023/03/15 00:24:02;;;;;;;54.45;51.15;;;1.00;99.90;;;;;;5186837;28;20415;-70
2023/03/15 00:26:32;;;;;;;66.50;60.95;;;1.40;99.90;;;;;;5187021;28;20025;-71
2023/03/15 00:29:04;;;;;;;66.85;61.15;;;0.90;99.90;;;;;;5186982;28;20034;-73
2023/03/15 00:31:34;;;;;;;64.35;58.75;;;0.10;99.90;;;;;;5186855;28;20103;-70
2023/03/15 00:34:05;;;;;;;64.80;59.22;;;0.70;99.90;;;;;;5185595;28;20170;-69
2023/03/15 00:36:36;;;;;;;61.65;56.80;;;0.70;99.90;;;;;;5186892;28;20022;-72
2023/03/15 00:39:07;;;;;;;67.68;62.08;;;0.60;99.90;;;;;;5185480;28;20117;-73
2023/03/15 00:41:38;;;;;;;61.00;56.20;;;1.10;99.90;;;;;;5186666;28;20026;-70
2023/03/15 00:44:09;;;;;;;66.68;61.72;;;1.20;99.90;;;;;;5186639;28;20034;-73
2023/03/15 00:46:39;;;;;;;67.32;61.95;;;1.20;99.90;;;;;;5186563;28;20034;-71
2023/03/15 00:49:10;;;;;;;67.38;61.38;;;1.50;99.90;;;;;;5186324;28;20033;-70
2023/03/15 00:51:41;;;;;;;75.43;69.03;;;1.10;99.90;;;;;;5186497;28;20026;-69
2023/03/15 00:54:12;;;;;;;59.88;55.38;;;1.00;99.90;;;;;;5186362;28;20042;-70
2023/03/15 00:56:43;;;;;;;62.03;57.92;;;0.70;99.90;;;;;;5186442;28;20033;-70
2023/03/15 00:59:14;;;;;;;64.63;59.85;;;0.90;99.90;;;;;;5186306;28;20026;-70
2023/03/15 01:01:45;;;;;;;62.70;57.97;;;1.10;99.90;;;;;;5186341;28;20029;-69
2023/03/15 01:04:16;;;;;;;70.40;64.55;;;0.90;99.90;;;;;;5186355;28;20034;-69
2023/03/15 01:06:47;;;;;;;73.10;67.10;;;1.10;99.90;;;;;;5201307;28;20413;-69
2023/03/15 01:09:17;;;;;;;72.32;65.97;;;0.80;99.90;;;;;;5185539;28;20112;-73
2023/03/15 01:11:49;;;;;;;76.30;69.85;;;1.10;99.90;;;;;;5201229;28;20018;-73
2023/03/15 01:14:20;;;;;;;72.32;65.93;;;1.20;99.90;;;;;;5186050;28;20045;-72
2023/03/15 01:16:51;;;;;;;76.85;69.78;;;1.40;99.90;;;;;;5185954;28;20025;-69
2023/03/15 01:19:22;;;;;;;79.93;72.22;;;0.90;99.90;;;;;;5201150;28;20065;-69
2023/03/15 01:21:53;;;;;;;82.57;74.75;;;0.50;99.90;;;;;;5185916;28;20065;-70
2023/03/15 01:24:23;;;;;;;63.22;58.60;;;1.00;99.90;;;;;;5185899;28;20046;-70
2023/03/15 01:26:54;;;;;;;74.03;67.82;;;1.10;99.90;;;;;;5201188;28;20100;-70
2023/03/15 01:29:25;;;;;;;70.60;64.78;;;0.80;99.90;;;;;;5185999;28;20037;-71
2023/03/15 01:31:56;;;;;;;63.10;57.70;;;0.60;99.90;;;;;;5186189;28;20025;-70
2023/03/15 01:34:27;;;;;;;72.20;65.30;;;0.40;99.90;;;;;;5185908;28;20034;-74
2023/03/15 01:36:58;;;;;;;75.53;68.22;;;0.60;99.90;;;;;;5185863;28;20101;-70
2023/03/15 01:39:29;;;;;;;81.93;74.53;;;0.90;99.90;;;;;;5185471;28;20500;-73
2023/03/15 01:42:01;;;;;;;76.60;69.72;;;0.60;99.90;;;;;;5185646;28;20159;-70
2023/03/15 01:44:55;;;;;;;68.57;62.55;;;0.80;99.90;;;;;;5184439;28;20029;-72
2023/03/15 01:47:27;;;;;;;63.20;58.10;;;0.50;99.90;;;;;;5185673;28;20160;-70
2023/03/15 01:50:05;;;;;;;60.22;55.72;;;0.20;99.90;;;;;;5184298;28;20018;-70
2023/03/15 01:52:39;;;;;;;64.45;59.58;;;0.70;99.90;;;;;;5185669;28;20044;-73
2023/03/15 01:55:15;;;;;;;65.18;59.78;;;0.70;99.90;;;;;;5184372;28;20486;-70
2023/03/15 01:57:54;;;;;;;448.33;420.33;;;0.70;99.90;;;;;;5185593;28;20041;-72
2023/03/15 02:00:26;;;;;;;67.43;61.05;;;0.70;99.90;;;;;;5185457;28;20374;-69
2023/03/15 02:03:13;;;;;;;71.88;64.03;;;0.70;99.90;;;;;;5185411;28;20028;-69
2023/03/15 02:05:48;;;;;;;72.85;65.35;;;0.90;99.90;;;;;;5185509;28;20022;-73
2023/03/15 02:08:23;;;;;;;73.68;65.78;;;0.90;99.90;;;;;;5185433;28;20092;-70
2023/03/15 02:10:57;;;;;;;62.97;56.40;;;0.90;99.90;;;;;;5185324;28;20026;-70
2023/03/15 02:13:29;;;;;;;50.65;46.40;;;0.30;99.90;;;;;;5185245;28;20037;-70
2023/03/15 02:16:05;;;;;;;48.40;44.40;;;0.30;99.90;;;;;;5185234;28;20026;-70
2023/03/15 02:18:37;;;;;;;54.45;50.05;;;0.30;99.90;;;;;;5185159;28;20026;-74
2023/03/15 02:21:43;;;;;;;55.70;50.58;;;1.00;99.90;;;;;;5186516;28;20053;-69
2023/03/15 02:24:13;;;;;;;53.95;48.95;;;-0.10;99.90;;;;;;5185095;28;20054;-70
2023/03/15 02:26:55;;;;;;;53.08;48.50;;;-0.10;99.90;;;;;;5189365;28;20034;-70
2023/03/15 02:29:28;;;;;;;55.65;50.92;;;0.60;99.90;;;;;;5189262;28;20026;-69
2023/03/15 02:32:03;;;;;;;53.72;49.65;;;0.60;99.90;;;;;;5189316;28;20057;-70
2023/03/15 02:34:34;;;;;;;52.83;48.88;;;0.80;99.90;;;;;;5189005;28;20030;-72
2023/03/15 02:37:04;;;;;;;54.92;50.35;;;0.60;99.90;;;;;;5187851;28;20032;-71
2023/03/15 02:39:35;;;;;;;55.85;51.72;;;0.70;99.90;;;;;;5189167;28;20045;-71
2023/03/15 02:42:06;;;;;;;55.20;50.80;;;0.70;99.90;;;;;;5187879;28;20537;-70
2023/03/15 02:44:40;;;;;;;51.75;47.55;;;0.50;99.90;;;;;;5189255;28;20072;-69
2023/03/15 02:47:19;;;;;;;52.63;48.67;;;0.50;99.90;;;;;;5189217;28;20018;-69
2023/03/15 02:49:52;;;;;;;50.88;46.90;;;0.40;99.90;;;;;;5189052;28;20120;-71
2023/03/15 02:52:25;;;;;;;49.53;45.78;;;0.60;99.90;;;;;;5188665;28;20029;-72
2023/03/15 02:54:55;;;;;;;50.40;45.97;;;0.80;99.90;;;;;;5188836;28;20045;-70
2023/03/15 02:57:27;;;;;;;48.40;45.03;;;0.80;99.90;;;;;;5188578;28;20470;-69
2023/03/15 02:59:59;;;;;;;49.17;45.88;;;0.70;99.90;;;;;;5188580;28;20347;-69
2023/03/15 03:02:30;;;;;;;45.80;42.67;;;0.70;99.90;;;;;;5188671;28;20466;-70
2023/03/15 03:05:01;;;;;;;58.42;53.80;;;0.10;99.90;;;;;;5203734;28;20626;-73
2023/03/15 03:07:32;;;;;;;44.38;41.40;;;0.40;99.90;;;;;;5187279;28;20022;-70
2023/03/15 03:10:04;;;;;;;45.65;42.38;;;0.50;99.90;;;;;;5203695;28;20033;-74
2023/03/15 03:12:35;;;;;;;48.80;45.40;;;0.70;99.90;;;;;;5188453;28;20079;-70
2023/03/15 03:15:07;;;;;;;49.20;45.72;;;0.20;99.90;;;;;;5203736;28;20489;-74
2023/03/15 03:17:38;;;;;;;53.58;49.72;;;0.50;99.90;;;;;;5188435;28;20097;-73
2023/03/15 03:20:11;;;;;;;54.38;50.38;;;0.60;99.90;;;;;;5188176;28;20109;-73
2023/03/15 03:22:45;;;;;;;51.65;47.85;;;0.70;99.90;;;;;;5187919;28;20100;-70
2023/03/15 03:25:16;;;;;;;54.42;50.42;;;0.60;99.90;;;;;;5187143;28;20026;-74
2023/03/15 03:27:47;;;;;;;48.60;44.88;;;0.20;99.90;;;;;;5188259;28;20030;-74
2023/03/15 03:30:18;;;;;;;49.75;45.95;;;0.10;99.90;;;;;;5188079;28;20101;-74
2023/03/15 03:32:49;;;;;;;51.70;47.90;;;0.60;99.90;;;;;;5187234;28;20089;-74
2023/03/15 03:35:20;;;;;;;52.60;48.75;;;0.60;99.90;;;;;;5188026;28;20030;-69
2023/03/15 03:37:52;;;;;;;51.60;47.65;;;0.50;99.90;;;;;;5187987;28;20084;-71
2023/03/15 03:40:23;;;;;;;57.30;52.50;;;0.60;99.90;;;;;;5187700;28;20037;-70
2023/03/15 03:42:54;;;;;;;55.90;51.38;;;0.50;99.90;;;;;;5203154;28;20854;-70
2023/03/15 03:45:25;;;;;;;58.78;53.80;;;0.50;99.90;;;;;;5187572;28;20397;-69
2023/03/15 03:47:55;;;;;;;54.10;49.72;;;0.50;99.90;;;;;;5187806;28;20033;-73
2023/03/15 03:50:27;;;;;;;58.67;53.58;;;0.50;99.90;;;;;;5187722;28;20052;-73
2023/03/15 03:52:58;;;;;;;60.10;54.63;;;-0.10;99.90;;;;;;5187486;28;20034;-70
2023/03/15 03:55:28;;;;;;;58.90;53.92;;;-0.10;99.90;;;;;;5187684;28;20026;-73
2023/03/15 03:58:00;;;;;;;57.70;52.65;;;0.60;99.90;;;;;;5187626;28;20068;-72
2023/03/15 04:00:31;;;;;;;62.28;56.65;;;0.40;99.90;;;;;;5187491;28;20026;-73
2023/03/15 04:03:01;;;;;;;62.22;56.35;;;0.30;99.90;;;;;;5187704;28;20037;-73
2023/03/15 04:05:33;;;;;;;64.55;58.15;;;0.10;99.90;;;;;;5187481;28;20022;-74
2023/03/15 04:08:04;;;;;;;70.82;64.07;;;0.10;99.90;;;;;;5187584;28;20037;-71
2023/03/15 04:10:35;;;;;;;67.80;60.88;;;-0.40;99.90;;;;;;5187450;28;20029;-72
2023/03/15 04:13:06;;;;;;;69.50;62.70;;;0.10;99.90;;;;;;5186028;28;20343;-71
2023/03/15 04:15:37;;;;;;;66.20;59.65;;;0.30;99.90;;;;;;5187396;28;20032;-70
2023/03/15 04:18:08;;;;;;;66.57;60.17;;;0.30;99.90;;;;;;5187312;28;20068;-70
2023/03/15 04:20:45;;;;;;;69.40;62.40;;;0.60;99.90;;;;;;5202417;28;20057;-73
2023/03/15 04:23:18;;;;;;;65.28;59.15;;;0.20;99.90;;;;;;5186820;28;20057;-70
2023/03/15 04:25:50;;;;;;;65.40;59.15;;;0.40;99.90;;;;;;5187151;28;20020;-70
2023/03/15 04:28:21;;;;;;;65.65;58.97;;;0.30;99.90;;;;;;5187085;28;20529;-71
2023/03/15 04:30:57;;;;;;;319.63;299.10;;;0.40;99.90;;;;;;5186975;28;20018;-74
2023/03/15 04:33:28;;;;;;;58.72;53.22;;;0.40;99.90;;;;;;5186875;28;20034;-71
2023/03/15 04:36:01;;;;;;;61.17;55.35;;;0.60;99.90;;;;;;5202068;28;20030;-74
2023/03/15 04:38:34;;;;;;;63.75;57.75;;;0.60;99.90;;;;;;5186824;28;20045;-72
2023/03/15 04:41:09;;;;;;;60.72;54.97;;;0.30;99.90;;;;;;5186702;28;20032;-71
2023/03/15 04:43:41;;;;;;;59.40;54.00;;;0.40;99.90;;;;;;5185722;28;20049;-71
2023/03/15 04:46:11;;;;;;;60.85;55.40;;;0.30;99.90;;;;;;5185384;28;20026;-73
2023/03/15 04:48:42;;;;;;;67.13;61.15;;;0.80;99.90;;;;;;5186566;28;20029;-73
2023/03/15 04:51:13;;;;;;;59.90;54.20;;;0.60;99.90;;;;;;5186613;28;20022;-70
2023/03/15 04:53:44;;;;;;;62.47;56.83;;;0.40;99.90;;;;;;5186416;28;20045;-72
2023/03/15 04:56:15;;;;;;;235.27;219.07;;;-0.20;99.90;;;;;;5186526;28;20022;-72
2023/03/15 04:58:46;;;;;;;109.20;87.82;;;0.40;99.90;;;;;;5201489;28;20108;-73
2023/03/15 05:01:16;;;;;;;134.82;95.85;;;0.80;99.90;;;;;;5186441;28;20026;-73
2023/03/15 05:03:47;;;;;;;141.82;94.22;;;0.40;99.90;;;;;;5186420;28;20053;-71
2023/03/15 05:06:18;;;;;;;126.85;90.60;;;0.30;99.90;;;;;;5186235;28;20649;-72
2023/03/15 05:08:49;;;;;;;131.30;85.82;;;-0.10;99.90;;;;;;5186228;28;20041;-71
2023/03/15 05:11:20;;;;;;;127.78;90.05;;;0.70;99.90;;;;;;5186274;28;20054;-72
2023/03/15 05:13:52;;;;;;;112.18;85.50;;;0.80;99.90;;;;;;5186141;28;20085;-73
2023/03/15 05:16:23;;;;;;;105.75;84.75;;;0.90;99.90;;;;;;5186491;28;20024;-71
2023/03/15 05:18:55;;;;;;;94.50;81.35;;;0.70;99.90;;;;;;5185913;28;20030;-70
2023/03/15 05:21:26;;;;;;;92.78;81.40;;;0.50;99.90;;;;;;5185909;28;20163;-70
2023/03/15 05:23:57;;;;;;;88.80;77.30;;;1.10;99.90;;;;;;5185940;28;20121;-71
2023/03/15 05:26:28;;;;;;;85.22;76.07;;;1.80;99.90;;;;;;5185808;28;20052;-71
2023/03/15 05:28:58;;;;;;;84.20;69.45;;;2.00;99.90;;;;;;5185641;28;20029;-72
2023/03/15 05:31:35;;;;;;;75.25;67.38;;;2.10;99.90;;;;;;5201112;28;20037;-72
2023/03/15 05:34:07;;;;;;;69.95;62.75;;;2.50;99.90;;;;;;5185750;28;20034;-72
2023/03/15 05:36:38;;;;;;;75.50;67.18;;;2.70;99.90;;;;;;5185704;28;20024;-70
2023/03/15 05:39:10;;;;;;;73.60;65.88;;;2.10;99.90;;;;;;5185816;28;20108;-73
2023/03/15 05:41:41;;;;;;;72.32;64.68;;;2.00;99.90;;;;;;5185680;28;20704;-72
2023/03/15 05:44:12;;;;;;;70.13;60.85;;;2.70;99.90;;;;;;5185673;28;20611;-71
2023/03/15 05:46:43;;;;;;;72.40;64.57;;;2.50;99.90;;;;;;5200770;28;20037;-71
2023/03/15 05:49:14;;;;;;;65.00;57.50;;;3.30;99.90;;;;;;5185540;28;20084;-72
2023/03/15 05:51:44;;;;;;;64.03;56.08;;;3.40;99.90;;;;;;5185531;28;20062;-71
2023/03/15 05:54:15;;;;;;;67.43;58.92;;;3.40;99.90;;;;;;5185440;28;20502;-71
2023/03/15 05:56:46;;;;;;;65.55;54.13;;;3.30;99.90;;;;;;5185362;28;20462;-72
2023/03/15 05:59:17;;;;;;;62.35;55.63;;;3.60;99.90;;;;;;5200542;28;20112;-74
2023/03/15 06:01:48;;;;;;;60.45;52.10;;;4.20;99.90;;;;;;5200476;28;20018;-74
2023/03/15 06:04:19;;;;;;;70.07;59.42;;;4.30;99.90;;;;;;5185334;28;20025;-71
2023/03/15 06:06:51;;;;;;;62.13;53.50;;;3.70;99.90;;;;;;5185315;28;20100;-70
2023/03/15 06:09:22;;;;;;;56.72;50.55;;;3.70;99.90;;;;;;5185269;28;20101;-69
2023/03/15 06:11:53;;;;;;;60.30;52.78;;;4.50;99.90;;;;;;5185209;28;20164;-73
2023/03/15 06:14:27;;;;;;;57.85;51.67;;;4.70;99.90;;;;;;5185199;28;20696;-70
2023/03/15 06:16:58;;;;;;;62.70;55.70;;;5.40;99.90;;;;;;5184935;28;20053;-73
2023/03/15 06:19:29;;;;;;;64.13;57.42;;;5.60;99.90;;;;;;5184869;28;20065;-72
2023/03/15 06:22:00;;;;;;;64.38;57.83;;;5.80;99.90;;;;;;5185026;28;20041;-72
2023/03/15 06:24:31;;;;;;;67.35;60.38;;;5.70;99.90;;;;;;5184989;28;20112;-71
2023/03/15 06:27:02;;;;;;;66.88;60.28;;;5.90;99.90;;;;;;5185153;28;20026;-75
2023/03/15 06:29:33;;;;;;;67.70;60.83;;;6.00;99.90;;;;;;5185101;28;20030;-74
2023/03/15 06:32:04;;;;;;;68.82;61.72;;;5.90;99.90;;;;;;5200424;28;20102;-74
2023/03/15 06:34:34;;;;;;;74.82;67.47;;;6.00;99.90;;;;;;5184702;28;20136;-71
2023/03/15 06:37:05;;;;;;;76.88;69.00;;;6.20;99.90;;;;;;5183973;28;20113;-70
2023/03/15 06:39:36;;;;;;;76.80;69.43;;;6.50;99.90;;;;;;5184886;28;20084;-77
2023/03/15 06:42:07;;;;;;;76.13;69.22;;;6.80;99.90;;;;;;5185129;28;20461;-70
2023/03/15 06:44:40;;;;;;;72.93;66.03;;;6.90;99.90;;;;;;5183326;28;20030;-78
2023/03/15 06:47:11;;;;;;;73.13;66.50;;;6.60;99.90;;;;;;5184976;28;20029;-79
2023/03/15 06:49:42;;;;;;;71.93;65.30;;;6.70;99.90;;;;;;5184847;28;20034;-79
2023/03/15 06:52:13;;;;;;;68.63;62.20;;;6.50;99.90;;;;;;5184805;28;20038;-78
2023/03/15 06:54:44;;;;;;;63.85;57.28;;;7.50;99.90;;;;;;5184899;28;20073;-76
2023/03/15 06:57:15;;;;;;;61.75;55.28;;;7.80;99.90;;;;;;5184893;28;20080;-71
2023/03/15 06:59:46;;;;;;;62.60;54.53;;;8.10;99.90;;;;;;5184758;28;20022;-80
2023/03/15 07:02:17;;;;;;;67.15;53.00;;;8.30;99.90;;;;;;5184746;28;20068;-80
2023/03/15 07:04:48;;;;;;;63.28;52.05;;;7.80;99.90;;;;;;5184804;28;20022;-79
2023/03/15 07:07:19;;;;;;;67.15;55.83;;;8.30;99.90;;;;;;5184898;28;20057;-77
2023/03/15 07:09:50;;;;;;;59.70;52.28;;;9.00;99.90;;;;;;5186702;28;20084;-79
2023/03/15 07:12:21;;;;;;;56.55;50.15;;;9.40;99.90;;;;;;5188500;28;20022;-80
2023/03/15 07:14:52;;;;;;;51.70;44.63;;;9.60;99.90;;;;;;5187973;28;20040;-71
2023/03/15 07:17:23;;;;;;;48.65;43.55;;;9.80;99.90;;;;;;5188364;28;20508;-80
2023/03/15 07:19:54;;;;;;;47.40;42.55;;;10.00;99.90;;;;;;5188420;28;20109;-77
2023/03/15 07:22:25;;;;;;;43.97;39.67;;;10.10;99.90;;;;;;5187655;28;20049;-74
2023/03/15 07:24:56;;;;;;;44.40;39.90;;;10.70;99.90;;;;;;5203261;28;20030;-80
2023/03/15 07:27:28;;;;;;;41.80;37.65;;;10.60;99.90;;;;;;5188318;28;20022;-80
2023/03/15 07:29:59;;;;;;;41.03;37.08;;;10.80;99.90;;;;;;5187929;28;20049;-78
2023/03/15 07:32:31;;;;;;;40.78;36.63;;;10.80;99.90;;;;;;5188097;28;20382;-80
2023/03/15 07:35:02;;;;;;;41.10;37.30;;;11.10;99.90;;;;;;5187880;28;20538;-78
2023/03/15 07:37:33;;;;;;;43.22;39.00;;;11.40;99.90;;;;;;5186622;28;20113;-70
2023/03/15 07:40:08;;;;;;;43.35;39.67;;;11.30;99.90;;;;;;5187374;28;20381;-77
2023/03/15 07:42:39;;;;;;;42.33;38.15;;;11.60;99.90;;;;;;5188035;28;20029;-71
2023/03/15 07:45:10;;;;;;;46.65;41.83;;;11.50;99.90;;;;;;5188154;28;20068;-79
2023/03/15 07:47:41;;;;;;;44.85;40.70;;;11.40;99.90;;;;;;5187973;28;20053;-79
2023/03/15 07:50:12;;;;;;;46.35;42.13;;;11.70;99.90;;;;;;5188114;28;20026;-79
2023/03/15 07:52:43;;;;;;;47.90;42.88;;;11.90;99.90;;;;;;5187707;28;20038;-79
2023/03/15 07:55:14;;;;;;;47.63;43.30;;;12.00;99.90;;;;;;5187789;28;20469;-72
2023/03/15 07:57:45;;;;;;;44.05;40.35;;;12.00;99.90;;;;;;5186419;28;20052;-71
2023/03/15 08:00:17;;;;;;;48.65;44.15;;;12.10;99.90;;;;;;5187630;28;20022;-79
2023/03/15 08:02:48;;;;;;;54.47;49.65;;;12.20;99.90;;;;;;5187674;28;20028;-80
2023/03/15 08:05:20;;;;;;;42.15;38.45;;;12.40;99.90;;;;;;5187579;28;20050;-78
2023/03/15 08:07:51;;;;;;;50.08;46.00;;;12.50;99.90;;;;;;5187541;28;20042;-79
2023/03/15 08:10:22;;;;;;;47.42;43.15;;;12.30;99.90;;;;;;5185912;28;20033;-79
2023/03/15 08:12:52;;;;;;;45.58;41.58;;;12.90;99.90;;;;;;5187368;28;20034;-79
2023/03/15 08:15:23;;;;;;;45.72;41.70;;;12.70;99.90;;;;;;5187316;28;20034;-79
2023/03/15 08:17:54;;;;;;;40.33;36.90;;;13.00;99.90;;;;;;5187011;28;20553;-75
2023/03/15 08:20:26;;;;;;;39.95;36.97;;;12.70;99.90;;;;;;5187024;28;20105;-70
2023/03/15 08:22:57;;;;;;;36.72;34.00;;;13.00;99.90;;;;;;5185509;28;20054;-79
2023/03/15 08:25:27;;;;;;;40.90;37.67;;;12.80;99.90;;;;;;5187185;28;20473;-77
2023/03/15 08:27:59;;;;;;;33.03;30.63;;;13.20;99.90;;;;;;5185728;28;20037;-79
2023/03/15 08:30:30;;;;;;;41.60;38.50;;;12.90;99.90;;;;;;5187079;28;20021;-79
2023/03/15 08:33:02;;;;;;;35.30;32.63;;;12.70;99.90;;;;;;5187060;28;20504;-79
2023/03/15 08:35:33;;;;;;;37.03;34.05;;;13.00;99.90;;;;;;5186789;28;20037;-76
2023/03/15 08:38:04;;;;;;;36.85;34.03;;;12.90;99.90;;;;;;5186629;28;20030;-77
2023/03/15 08:40:35;;;;;;;41.42;38.30;;;13.50;99.90;;;;;;5186671;28;20092;-70
2023/03/15 08:43:06;;;;;;;30.25;27.75;;;12.90;99.90;;;;;;5186818;28;20018;-80
2023/03/15 08:45:37;;;;;;;39.50;36.50;;;13.20;99.90;;;;;;5186264;28;20041;-69
2023/03/15 08:48:08;;;;;;;48.53;44.90;;;13.10;99.90;;;;;;5185429;28;20026;-79
2023/03/15 08:50:39;;;;;;;44.88;41.53;;;13.00;99.90;;;;;;5186453;28;20024;-70
2023/03/15 08:53:10;;;;;;;44.25;40.95;;;12.80;99.90;;;;;;5186420;28;20044;-70
2023/03/15 08:55:41;;;;;;;42.75;39.65;;;13.20;99.90;;;;;;5185288;28;20409;-70
2023/03/15 08:58:13;;;;;;;34.97;32.30;;;13.30;99.90;;;;;;5186760;28;20026;-70
2023/03/15 09:00:44;;;;;;;47.97;44.42;;;13.00;99.90;;;;;;5186352;28;20025;-71
2023/03/15 09:03:15;;;;;;;42.30;39.20;;;12.90;99.90;;;;;;5186568;28;20026;-74
2023/03/15 09:05:46;;;;;;;34.20;31.65;;;13.60;99.90;;;;;;5186504;28;20163;-71
2023/03/15 09:08:19;;;;;;;26.63;24.13;;;13.90;99.90;;;;;;5185489;28;20116;-69
2023/03/15 09:10:57;;;;;;;57.53;53.42;;;13.90;99.90;;;;;;5186214;28;20030;-71
2023/03/15 09:13:28;;;;;;;33.95;31.15;;;13.40;99.90;;;;;;5186273;28;20033;-78
2023/03/15 09:15:59;;;;;;;31.52;28.88;;;13.40;99.90;;;;;;5186385;28;20041;-70
2023/03/15 09:18:32;;;;;;;33.58;30.55;;;14.00;99.90;;;;;;5186076;28;20057;-71
2023/03/15 09:21:04;;;;;;;32.05;29.63;;;13.70;99.90;;;;;;5186007;28;20026;-70
2023/03/15 09:23:35;;;;;;;32.67;29.88;;;13.60;99.90;;;;;;5185973;28;20058;-70
2023/03/15 09:26:06;;;;;;;35.00;32.63;;;14.10;99.90;;;;;;5186116;28;20382;-77
2023/03/15 09:28:37;;;;;;;37.80;34.72;;;13.70;99.90;;;;;;5186672;28;20112;-77
2023/03/15 09:31:08;;;;;;;30.13;27.63;;;14.30;99.90;;;;;;5186122;28;20101;-69
2023/03/15 09:33:39;;;;;;;36.30;33.65;;;14.60;99.90;;;;;;5186115;28;20056;-76
2023/03/15 09:36:10;;;;;;;32.67;30.17;;;13.90;99.90;;;;;;5186072;28;20026;-78
2023/03/15 09:38:42;;;;;;;29.73;27.27;;;13.90;99.90;;;;;;5185823;28;20048;-70
2023/03/15 09:41:55;;;;;;;40.65;37.70;;;14.30;99.90;;;;;;5185727;28;20026;-79
2023/03/15 09:44:32;;;;;;;28.48;25.98;;;14.40;99.90;;;;;;5181755;28;20038;-69
2023/03/15 09:47:18;;;;;;;28.80;26.38;;;14.50;99.90;;;;;;5184490;28;20092;-76
2023/03/15 09:49:56;;;;;;;78.07;69.57;;;14.70;99.90;;;;;;5185725;28;20437;-74
2023/03/15 09:52:33;;;;;;;29.77;27.23;;;14.60;99.90;;;;;;5184397;28;20084;-72
2023/03/15 09:55:15;;;;;;;24.88;22.38;;;15.10;99.90;;;;;;5185515;28;20129;-71
2023/03/15 09:58:00;;;;;;;28.90;26.50;;;14.60;99.90;;;;;;5184788;28;20026;-72
2023/03/15 10:00:39;;;;;;;26.63;24.23;;;14.50;99.90;;;;;;5184782;28;20045;-72
2023/03/15 10:03:25;;;;;;;27.30;24.85;;;14.90;99.90;;;;;;5185147;28;20079;-72
2023/03/15 10:06:22;;;;;;;26.13;23.85;;;14.70;99.90;;;;;;5184064;28;20478;-72
2023/03/15 10:08:59;;;;;;;32.28;29.48;;;15.20;99.90;;;;;;5183735;28;20128;-72
2023/03/15 10:12:10;;;;;;;34.80;28.38;;;14.80;99.90;;;;;;5185350;28;20490;-72
2023/03/15 10:14:56;;;;;;;155.85;146.13;;;15.20;99.90;;;;;;5184419;28;20049;-71
2023/03/15 10:17:58;;;;;;;47.38;43.95;;;14.40;99.90;;;;;;5185439;28;20429;-72
2023/03/15 10:20:35;;;;;;;29.92;27.48;;;14.70;99.90;;;;;;5183980;28;20037;-72
2023/03/15 10:23:09;;;;;;;55.55;51.33;;;15.10;99.90;;;;;;5185409;28;20042;-71
2023/03/15 10:25:40;;;;;;;25.80;23.42;;;15.20;99.90;;;;;;5185495;28;20036;-71
2023/03/15 10:28:11;;;;;;;24.95;22.83;;;15.60;99.90;;;;;;5185040;28;20026;-71
2023/03/15 10:30:47;;;;;;;24.70;22.48;;;15.60;99.90;;;;;;5183861;28;20064;-72
2023/03/15 10:33:28;;;;;;;31.10;28.58;;;14.60;99.90;;;;;;5183825;28;20022;-72
2023/03/15 10:36:00;;;;;;;202.10;189.55;;;15.00;99.90;;;;;;5183973;28;20772;-73
2023/03/15 10:38:31;;;;;;;25.95;23.63;;;14.40;99.90;;;;;;5183936;28;20465;-72
2023/03/15 10:41:05;;;;;;;23.60;19.75;;;15.20;99.90;;;;;;5185049;28;20033;-71
2023/03/15 10:43:38;;;;;;;22.00;20.20;;;15.30;99.90;;;;;;5188703;28;20183;-72
2023/03/15 10:46:21;;;;;;;24.77;22.58;;;15.40;99.90;;;;;;5187888;28;20034;-72
2023/03/15 10:48:59;;;;;;;20.63;18.65;;;15.40;99.90;;;;;;5189086;28;20030;-71
2023/03/15 10:51:36;;;;;;;23.33;21.25;;;14.80;99.90;;;;;;5188943;28;20380;-72
2023/03/15 10:54:11;;;;;;;27.88;24.77;;;15.00;99.90;;;;;;5188966;28;20049;-71
2023/03/15 10:57:06;;;;;;;33.85;31.17;;;14.50;99.90;;;;;;5187532;28;20103;-71
2023/03/15 10:59:37;;;;;;;26.58;24.38;;;14.40;99.90;;;;;;5188769;28;20061;-71
2023/03/15 11:02:11;;;;;;;79.57;74.70;;;14.60;99.90;;;;;;5188870;28;20025;-72
2023/03/15 11:04:46;;;;;;;33.63;31.02;;;14.30;99.90;;;;;;5188738;28;20565;-72
2023/03/15 11:07:17;;;;;;;57.88;53.75;;;14.40;99.90;;;;;;5188654;28;20076;-71
2023/03/15 11:09:53;;;;;;;34.30;31.42;;;14.10;99.90;;;;;;5188434;28;20033;-71
2023/03/15 11:12:27;;;;;;;33.88;31.10;;;14.30;99.90;;;;;;5188557;28;20064;-72
2023/03/15 11:15:09;;;;;;;51.28;47.90;;;14.30;99.90;;;;;;5188141;28;20120;-72
2023/03/15 11:17:46;;;;;;;46.05;42.90;;;14.20;99.90;;;;;;5188598;28;20026;-71
2023/03/15 11:20:35;;;;;;;26.08;23.98;;;15.00;99.90;;;;;;5188274;28;20365;-72
2023/03/15 11:23:30;;;;;;;22.30;20.05;;;15.40;99.90;;;;;;5188007;28;20070;-71
2023/03/15 11:26:02;;;;;;;23.23;21.33;;;15.30;99.90;;;;;;5188270;28;20030;-72
2023/03/15 11:28:36;;;;;;;20.83;19.05;;;15.80;99.90;;;;;;5188277;28;20028;-72
2023/03/15 11:31:07;;;;;;;27.83;25.65;;;15.70;99.90;;;;;;5186970;28;20029;-72
2023/03/15 11:33:46;;;;;;;16.88;15.38;;;15.60;99.90;;;;;;5188290;28;20022;-71
2023/03/15 11:36:23;;;;;;;38.33;35.65;;;15.80;99.90;;;;;;5188466;28;20121;-73
2023/03/15 11:38:54;;;;;;;21.52;19.55;;;15.10;99.90;;;;;;5188596;28;20099;-72
2023/03/15 11:41:50;;;;;;;18.80;17.15;;;15.90;99.90;;;;;;5188101;28;20173;-72
2023/03/15 11:44:31;;;;;;;20.63;18.98;;;16.10;99.90;;;;;;5187951;28;20033;-72
2023/03/15 11:47:30;;;;;;;21.40;19.63;;;15.90;97.90;;;;;;5186814;28;20037;-72
2023/03/15 11:50:01;;;;;;;27.73;25.42;;;16.70;96.50;;;;;;5186625;28;20026;-73
2023/03/15 11:52:32;;;;;;;17.30;15.80;;;16.00;97.90;;;;;;5713196;23;20075;-72
2023/03/15 11:55:03;;;;;;;20.05;18.13;;;16.10;99.00;;;;;;5249503;28;20082;-73
2023/03/15 11:57:49;;;;;;;24.35;22.40;;;15.70;99.20;;;;;;5249539;28;20115;-72
2023/03/15 12:00:25;;;;;;;17.65;16.02;;;15.60;97.10;;;;;;5248153;28;20086;-72
2023/03/15 12:02:58;;;;;;;18.55;16.95;;;15.70;97.90;;;;;;5249438;28;20051;-72
2023/03/15 12:05:49;;;;;;;20.73;18.88;;;16.30;98.60;;;;;;5249343;28;20031;-70
2023/03/15 12:08:35;;;;;;;16.38;14.70;;;15.80;94.30;;;;;;5240723;28;20025;-70
2023/03/15 12:11:33;;;;;;;16.42;15.07;;;16.80;93.60;;;;;;5228630;28;20112;-70
2023/03/15 12:14:20;;;;;;;18.50;16.80;;;16.80;94.40;;;;;;5220987;28;20388;-75
2023/03/15 12:16:55;;;;;;;16.77;15.25;;;16.90;95.80;;;;;;5228481;28;20017;-76
2023/03/15 12:19:27;;;;;;;16.45;15.07;;;16.90;93.00;;;;;;5228152;28;20032;-70
2023/03/15 12:21:58;;;;;;;16.52;15.23;;;16.80;89.80;;;;;;5228055;28;20036;-77
2023/03/15 12:24:36;;;;;;;17.58;15.68;;;16.70;88.10;;;;;;5227180;28;20025;-70
2023/03/15 12:27:27;;;;;;;18.23;16.58;;;17.30;88.30;;;;;;5228154;28;20059;-72
2023/03/15 12:30:00;;;;;;;18.15;16.52;;;17.00;86.40;;;;;;5243268;28;20029;-74
2023/03/15 12:32:46;;;;;;;19.20;17.17;;;17.10;84.60;;;;;;5226713;28;20423;-73
2023/03/15 12:35:20;;;;;;;14.70;13.27;;;16.90;87.20;;;;;;5226638;28;20033;-72
2023/03/15 12:37:53;;;;;;;16.70;13.20;;;17.30;84.40;;;;;;5228032;28;20477;-71
2023/03/15 12:40:52;;;;;;;13.00;12.10;;;17.50;84.70;;;;;;5227788;28;20021;-73
2023/03/15 12:43:42;;;;;;;14.05;12.57;;;17.40;84.40;;;;;;5227946;28;20066;-79
2023/03/15 12:46:46;;;;;;;13.32;12.02;;;17.90;84.40;;;;;;5244005;28;20107;-79
2023/03/15 12:49:22;;;;;;;12.48;11.25;;;18.40;81.40;;;;;;5214759;28;20033;-71
2023/03/15 12:51:55;;;;;;;11.98;10.85;;;17.60;81.40;;;;;;5248244;28;20056;-80
2023/03/15 12:54:44;;;;;;;12.07;11.07;;;17.50;81.20;;;;;;5248410;28;20093;-72
2023/03/15 12:57:22;;;;;;;26.77;24.75;;;18.10;81.80;;;;;;5246932;28;20038;-71
2023/03/15 13:00:14;;;;;;;14.88;13.30;;;17.10;80.70;;;;;;5248225;28;20029;-70
2023/03/15 13:03:05;;;;;;;12.38;11.30;;;17.70;80.70;;;;;;5248383;28;20396;-81
2023/03/15 13:05:42;;;;;;;11.23;10.23;;;17.50;79.20;;;;;;5247374;28;20434;-79